Time;durP1;ratioP1;P1;durP2;ratioP2;P2;SDS_P1;SDS_P2;PMS_P1;PMS_P2;Temp;Humidity;BMP_temperature;BMP_pressure;BME280_temperature;BME280_humidity;BME280_pressure;Samples;Min_cycle;Max_cycle;Signal;HPM_P1;HPM_P2
2022/08/13 00:00:15;;;;;;;5.33;3.27;;;;;;;19.14;69.83;102038.56;4994597;28;20262;-81
2022/08/13 00:02:42;;;;;;;4.97;2.93;;;;;;;19.16;69.43;102042.91;4993578;28;20187;-80
2022/08/13 00:05:09;;;;;;;4.10;3.27;;;;;;;19.09;69.63;102046.38;4993811;28;20613;-80
2022/08/13 00:07:35;;;;;;;5.73;2.93;;;;;;;19.12;69.37;102042.91;4992948;28;20298;-79
2022/08/13 00:10:04;;;;;;;5.13;3.30;;;;;;;18.99;69.77;102041.13;4992744;28;20183;-78
2022/08/13 00:15:20;;;;;;;5.63;2.93;;;;;;;19.06;69.05;102037.66;4993723;28;20176;-78
2022/08/13 00:17:49;;;;;;;3.97;2.80;;;;;;;18.95;69.08;102045.44;4993707;28;20846;-79
2022/08/13 00:20:18;;;;;;;6.20;3.03;;;;;;;18.98;69.06;102042.84;4993237;28;20230;-80
2022/08/13 00:22:44;;;;;;;3.40;2.90;;;;;;;18.97;68.28;102048.06;4973624;28;20247;-78
2022/08/13 00:25:09;;;;;;;4.90;2.97;;;;;;;19.02;68.05;102038.56;4973285;28;20216;-79
2022/08/13 00:27:36;;;;;;;3.07;2.70;;;;;;;19.05;67.69;102043.72;4984924;28;20738;-79
2022/08/13 00:30:05;;;;;;;3.73;2.63;;;;;;;19.06;67.35;102040.25;4976579;28;20187;-79
2022/08/13 00:32:31;;;;;;;4.83;3.10;;;;;;;19.08;66.98;102039.44;4992545;28;20195;-79
2022/08/13 00:34:57;;;;;;;4.63;3.03;;;;;;;19.04;67.42;102047.19;4992638;28;20543;-79
2022/08/13 00:37:25;;;;;;;4.77;3.00;;;;;;;18.98;67.77;102037.66;4974831;28;20240;-81
2022/08/13 00:39:53;;;;;;;4.20;2.60;;;;;;;19.01;67.52;102041.97;4977638;28;20558;-80
2022/08/13 00:42:25;;;;;;;6.17;2.80;;;;;;;18.95;67.25;102040.25;4978273;28;20195;-79
2022/08/13 00:44:51;;;;;;;3.57;3.23;;;;;;;18.91;68.41;102041.09;4993912;28;20220;-81
2022/08/13 00:50:03;;;;;;;3.40;3.10;;;;;;;18.93;67.35;102034.16;4976113;28;20612;-80
2022/08/13 00:52:30;;;;;;;4.30;2.87;;;;;;;18.92;67.24;102034.16;4969986;28;20187;-79
2022/08/13 00:55:01;;;;;;;5.67;2.60;;;;;;;18.92;67.18;102039.34;4989691;28;20262;-78
2022/08/13 00:57:28;;;;;;;3.10;2.70;;;;;;;18.86;67.37;102028.94;4974386;28;20725;-80
2022/08/13 00:59:55;;;;;;;4.90;2.87;;;;;;;18.85;66.97;102035.88;4991499;28;20192;-79
2022/08/13 01:02:21;;;;;;;4.80;2.53;;;;;;;18.82;67.62;102030.66;4992252;28;20191;-79
2022/08/13 01:04:47;;;;;;;4.13;3.03;;;;;;;18.73;67.71;102033.22;4972608;28;20208;-78
2022/08/13 01:07:20;;;;;;;5.50;2.87;;;;;;;18.73;67.67;102029.72;5002991;28;20735;-80
2022/08/13 01:09:45;;;;;;;3.80;2.50;;;;;;;18.70;67.87;102030.59;4994267;28;20736;-80
2022/08/13 01:12:13;;;;;;;3.73;2.83;;;;;;;18.69;67.96;102028.84;4993505;28;20187;-80
2022/08/13 01:14:39;;;;;;;4.23;2.70;;;;;;;18.64;68.07;102024.50;4991811;28;20183;-80
2022/08/13 01:17:07;;;;;;;6.47;2.90;;;;;;;18.53;68.57;102031.34;4990121;28;20187;-79
2022/08/13 01:19:34;;;;;;;4.40;2.67;;;;;;;18.47;68.84;102028.75;4994308;28;20192;-80
2022/08/13 01:22:00;;;;;;;3.23;2.93;;;;;;;18.47;69.26;102028.75;4991980;28;20346;-79
2022/08/13 01:24:28;;;;;;;6.93;2.80;;;;;;;18.42;70.05;102026.09;4993414;28;20239;-79
2022/08/13 01:26:56;;;;;;;4.17;2.80;;;;;;;18.42;69.98;102026.09;4992803;28;20225;-78
2022/08/13 01:29:23;;;;;;;6.00;3.07;;;;;;;18.33;69.93;102023.44;4993389;28;20263;-77
2022/08/13 01:31:51;;;;;;;5.63;3.23;;;;;;;18.29;70.12;102024.25;4988269;28;20262;-80
2022/08/13 01:34:18;;;;;;;3.63;2.97;;;;;;;18.30;69.82;102017.34;4993517;28;20187;-79
2022/08/13 01:36:46;;;;;;;3.97;2.93;;;;;;;18.20;69.99;102020.72;4976521;28;20188;-79
2022/08/13 01:39:12;;;;;;;4.40;2.90;;;;;;;18.19;70.29;102029.38;4986612;28;20287;-79
2022/08/13 01:41:38;;;;;;;4.97;3.60;;;;;;;18.16;70.52;102025.03;4997299;28;20797;-78
2022/08/13 01:44:05;;;;;;;4.33;3.40;;;;;;;17.97;71.37;102028.31;4996437;28;20191;-78
2022/08/13 01:52:08;;;;;;;6.27;3.67;;;;;;;17.98;70.96;102034.38;4995306;28;20192;-80
2022/08/13 01:54:36;;;;;;;7.00;2.80;;;;;;;18.03;70.71;102024.91;4997221;28;20188;-80
2022/08/13 01:57:04;;;;;;;4.73;3.30;;;;;;;17.96;71.10;102028.31;4979091;28;20215;-80
2022/08/13 01:59:34;;;;;;;6.93;2.70;;;;;;;17.89;71.32;102031.69;4997347;28;20661;-78
2022/08/13 02:02:01;;;;;;;3.73;3.00;;;;;;;17.84;70.96;102028.22;4997656;28;20192;-79
2022/08/13 02:04:27;;;;;;;3.70;3.27;;;;;;;17.78;71.70;102031.59;4997396;28;20272;-80
2022/08/13 02:06:54;;;;;;;4.60;3.47;;;;;;;17.69;72.37;102030.66;4996354;28;20206;-80
2022/08/13 02:09:23;;;;;;;8.70;3.23;;;;;;;17.71;72.91;102028.94;4979679;28;20277;-80
2022/08/13 02:11:49;;;;;;;5.60;3.53;;;;;;;17.62;72.99;102029.72;4995357;28;20200;-79
2022/08/13 02:14:15;;;;;;;3.53;3.00;;;;;;;17.57;73.58;102025.34;4995661;28;20274;-80
2022/08/13 02:16:41;;;;;;;3.30;3.00;;;;;;;17.56;73.90;102032.28;4975763;28;20184;-79
2022/08/13 02:19:08;;;;;;;4.83;2.97;;;;;;;17.49;74.29;102038.22;4990577;28;20226;-80
2022/08/13 02:21:36;;;;;;;3.50;2.90;;;;;;;17.48;74.64;102033.03;4996448;28;20241;-80
2022/08/13 02:24:03;;;;;;;6.00;3.23;;;;;;;17.43;74.70;102033.00;4995038;28;20188;-80
2022/08/13 02:26:32;;;;;;;7.73;3.30;;;;;;;17.35;74.89;102036.28;4995964;28;20227;-78
2022/08/13 02:29:00;;;;;;;5.20;3.10;;;;;;;17.34;74.49;102030.28;4995288;28;20210;-80
2022/08/13 02:31:28;;;;;;;3.40;3.10;;;;;;;17.28;74.61;102032.81;4975536;28;20188;-79
2022/08/13 02:33:54;;;;;;;3.53;3.00;;;;;;;17.27;74.71;102036.22;4976389;28;20283;-79
2022/08/13 02:36:22;;;;;;;4.30;3.13;;;;;;;17.24;74.42;102036.19;4978320;28;20195;-77
2022/08/13 02:39:03;;;;;;;3.47;3.17;;;;;;;17.17;74.69;102030.94;4974966;28;20294;-79
2022/08/13 02:41:38;;;;;;;6.33;3.20;;;;;;;17.10;74.00;102024.81;4994782;28;20275;-79
2022/08/13 02:44:14;;;;;;;4.40;3.30;;;;;;;17.04;75.13;102027.31;4995199;28;20178;-80
2022/08/13 02:46:42;;;;;;;3.60;3.30;;;;;;;16.96;74.95;102023.78;4994903;28;20266;-79
2022/08/13 02:49:09;;;;;;;4.33;3.13;;;;;;;16.95;74.51;102024.59;4976328;28;20211;-80
2022/08/13 02:51:35;;;;;;;6.53;3.17;;;;;;;16.98;74.71;102024.66;4991521;28;20199;-79
2022/08/13 02:54:01;;;;;;;5.87;3.03;;;;;;;16.97;75.17;102019.47;4974844;28;20220;-79
2022/08/13 02:56:28;;;;;;;3.93;3.00;;;;;;;16.95;75.23;102016.84;4993247;28;20218;-78
2022/08/13 02:58:55;;;;;;;4.83;3.30;;;;;;;16.94;74.98;102019.44;4994247;28;20208;-81
2022/08/13 03:01:25;;;;;;;4.37;3.20;;;;;;;16.83;75.36;102018.41;4994924;28;20213;-79
2022/08/13 03:03:52;;;;;;;7.37;3.47;;;;;;;16.76;75.46;102014.88;4994467;28;20256;-81
2022/08/13 03:06:19;;;;;;;3.83;3.40;;;;;;;16.84;75.77;102017.56;4994457;28;20236;-80
2022/08/13 03:08:52;;;;;;;5.53;3.40;;;;;;;16.73;75.91;102019.16;4995768;28;20199;-80
2022/08/13 03:11:19;;;;;;;4.97;3.60;;;;;;;16.72;76.47;102015.69;4979223;28;20176;-80
2022/08/13 03:13:51;;;;;;;3.53;3.07;;;;;;;16.75;76.58;102022.63;4994688;28;20566;-81
2022/08/13 03:16:21;;;;;;;6.33;3.27;;;;;;;16.68;76.55;102026.88;4977845;28;20199;-80
2022/08/13 03:18:47;;;;;;;4.73;3.03;;;;;;;16.63;76.81;102027.66;4993580;28;20298;-79
2022/08/13 03:21:16;;;;;;;5.93;3.20;;;;;;;16.62;76.99;102031.09;4995133;28;20219;-81
2022/08/13 03:23:43;;;;;;;5.00;3.70;;;;;;;16.57;77.19;102028.41;4995790;28;20187;-81
2022/08/13 03:26:11;;;;;;;4.13;3.50;;;;;;;16.54;77.84;102020.59;4995378;28;20219;-79
2022/08/13 03:28:38;;;;;;;4.07;3.67;;;;;;;16.46;78.38;102026.53;4995941;28;20203;-79
2022/08/13 03:31:05;;;;;;;3.83;3.30;;;;;;;16.44;78.60;102026.50;4975101;28;20184;-81
2022/08/13 03:33:32;;;;;;;3.67;3.37;;;;;;;16.40;78.49;102029.03;4985569;28;20198;-81
2022/08/13 03:35:58;;;;;;;4.00;3.60;;;;;;;16.39;78.80;102024.69;4995630;28;20184;-80
2022/08/13 03:38:24;;;;;;;4.50;3.60;;;;;;;16.41;78.21;102023.00;4994514;28;20212;-81
2022/08/13 03:41:02;;;;;;;5.50;3.60;;;;;;;16.40;78.56;102018.69;4978186;28;20195;-79
2022/08/13 03:43:29;;;;;;;5.00;3.50;;;;;;;16.34;78.67;102013.41;4995899;28;20194;-78
2022/08/13 03:45:55;;;;;;;3.87;3.43;;;;;;;16.35;78.86;102021.16;4994184;28;20294;-80
2022/08/13 03:48:21;;;;;;;5.70;3.57;;;;;;;16.34;78.59;102016.84;4979455;28;20302;-82
2022/08/13 03:50:48;;;;;;;3.83;3.43;;;;;;;16.25;79.01;102016.69;4991076;28;20188;-79
2022/08/13 03:53:16;;;;;;;4.70;3.47;;;;;;;16.28;78.72;102021.03;4996121;28;20290;-80
2022/08/13 03:55:42;;;;;;;5.80;3.33;;;;;;;16.23;79.15;102014.94;5007313;28;20652;-80
2022/08/13 03:58:09;;;;;;;4.03;3.73;;;;;;;16.26;78.77;102009.81;5018339;28;20260;-82
2022/08/13 04:00:41;;;;;;;8.50;3.80;;;;;;;16.17;79.95;102017.44;5018541;28;20183;-81
2022/08/13 04:03:19;;;;;;;4.63;3.70;;;;;;;16.24;79.54;102008.91;5017259;28;20676;-81
2022/08/13 04:05:45;;;;;;;6.70;3.43;;;;;;;16.23;79.12;102018.41;5019077;28;20877;-83
2022/08/13 04:08:11;;;;;;;5.37;3.70;;;;;;;16.16;79.68;102013.97;5000525;28;20209;-81
2022/08/13 04:10:37;;;;;;;5.17;3.50;;;;;;;16.14;79.85;102014.78;5007293;28;20678;-83
2022/08/13 04:13:04;;;;;;;6.20;3.60;;;;;;;16.21;79.48;102014.06;4998185;28;20191;-79
2022/08/13 04:15:30;;;;;;;5.27;3.70;;;;;;;16.15;79.65;102008.78;4995881;28;20195;-80
2022/08/13 04:17:56;;;;;;;4.60;4.20;;;;;;;16.14;80.30;102007.94;4980048;28;20219;-82
2022/08/13 04:20:21;;;;;;;7.40;4.50;;;;;;;16.19;79.87;102013.16;4996775;28;20215;-81
2022/08/13 04:22:47;;;;;;;8.80;5.10;;;;;;;16.17;80.06;102010.53;4980414;28;20242;-81
2022/08/13 04:25:13;;;;;;;5.13;4.33;;;;;;;16.14;79.73;102007.03;4980309;28;20234;-80
2022/08/13 04:27:38;;;;;;;5.63;3.80;;;;;;;16.12;80.32;102012.19;4982600;28;20254;-81
2022/08/13 04:30:06;;;;;;;5.97;4.17;;;;;;;16.14;79.91;102009.63;4992298;28;20222;-79
2022/08/13 04:32:42;;;;;;;4.30;3.60;;;;;;;16.19;80.55;102013.16;4993385;28;20192;-79
2022/08/13 04:35:09;;;;;;;6.50;3.70;;;;;;;16.25;79.54;102008.94;4994462;28;20603;-79
2022/08/13 04:37:35;;;;;;;6.53;3.97;;;;;;;16.26;79.66;102004.66;4995296;28;20632;-81
2022/08/13 04:40:00;;;;;;;3.97;3.47;;;;;;;16.32;79.52;102005.63;4994552;28;20222;-79
2022/08/13 04:42:26;;;;;;;4.87;3.50;;;;;;;16.38;79.51;102003.13;4997445;28;20179;-79
2022/08/13 04:44:51;;;;;;;3.70;3.27;;;;;;;16.44;79.38;101999.78;4983472;28;20223;-80
2022/08/13 04:47:17;;;;;;;4.47;4.07;;;;;;;16.47;79.70;102002.41;4999605;28;20218;-81
2022/08/13 04:49:44;;;;;;;5.30;3.80;;;;;;;16.52;80.19;101999.03;4998036;28;20215;-80
2022/08/13 04:52:10;;;;;;;4.07;3.67;;;;;;;16.59;79.98;101995.69;4997296;28;20558;-80
2022/08/13 04:54:35;;;;;;;4.30;3.40;;;;;;;16.63;80.13;101991.44;4996688;28;20180;-82
2022/08/13 04:57:01;;;;;;;4.20;3.80;;;;;;;16.71;80.44;101995.00;4979855;28;20191;-80
2022/08/13 04:59:26;;;;;;;5.73;3.90;;;;;;;16.80;79.53;101987.34;4995277;28;20192;-79
2022/08/13 05:01:52;;;;;;;4.50;3.93;;;;;;;16.87;79.55;101994.31;4997052;28;20183;-80
2022/08/13 05:04:17;;;;;;;3.77;3.20;;;;;;;16.94;80.46;101993.56;4994502;28;20184;-81
2022/08/13 05:06:44;;;;;;;7.10;3.40;;;;;;;17.02;80.90;101991.91;4986916;28;20184;-81
2022/08/13 05:09:09;;;;;;;5.17;3.63;;;;;;;17.11;80.68;101998.06;4988865;28;20211;-82
2022/08/13 05:11:35;;;;;;;3.90;3.50;;;;;;;17.26;80.97;101999.94;4987885;28;20199;-81
2022/08/13 05:14:00;;;;;;;6.27;3.67;;;;;;;17.37;80.57;101990.59;4987668;28;20220;-80
2022/08/13 05:16:26;;;;;;;3.83;3.43;;;;;;;17.46;79.62;101994.16;4988577;28;20712;-81
2022/08/13 05:18:55;;;;;;;8.53;4.40;;;;;;;17.62;79.87;101990.88;4989565;28;20231;-80
2022/08/13 05:21:22;;;;;;;4.30;3.80;;;;;;;17.74;79.46;101988.38;4989868;28;20198;-82
2022/08/13 05:23:53;;;;;;;5.70;3.93;;;;;;;17.89;78.57;101988.53;4990111;28;20183;-82
2022/08/13 05:26:21;;;;;;;4.90;4.10;;;;;;;18.05;78.95;101986.91;5018981;28;20214;-80
2022/08/13 05:28:49;;;;;;;5.97;4.00;;;;;;;18.22;78.83;101982.69;5018759;28;20199;-81
2022/08/13 05:31:17;;;;;;;6.47;3.93;;;;;;;18.35;77.12;101988.03;5019017;28;20187;-81
2022/08/13 05:33:42;;;;;;;3.83;3.43;;;;;;;18.54;76.50;101983.78;5020465;28;20640;-81
2022/08/13 05:36:09;;;;;;;6.00;3.80;;;;;;;18.69;76.56;101979.53;5020904;28;20187;-80
2022/08/13 05:38:37;;;;;;;4.60;3.40;;;;;;;18.86;75.95;101983.09;5016637;28;20230;-79
2022/08/13 05:41:06;;;;;;;4.80;3.37;;;;;;;19.00;75.61;101984.00;5021009;28;20656;-80
2022/08/13 05:43:35;;;;;;;6.47;3.43;;;;;;;19.12;73.50;101983.19;5022136;28;20190;-80
2022/08/13 05:46:05;;;;;;;5.33;3.20;;;;;;;19.27;72.58;101978.06;5019897;28;20222;-81
2022/08/13 05:48:33;;;;;;;7.37;3.50;;;;;;;19.42;72.07;101984.16;5002266;28;20293;-79
2022/08/13 05:51:01;;;;;;;5.13;3.07;;;;;;;19.58;72.43;101980.69;5001066;28;20259;-79
2022/08/13 05:53:28;;;;;;;5.37;3.40;;;;;;;19.72;70.84;101981.56;5001463;28;20188;-79
2022/08/13 05:55:54;;;;;;;5.33;3.17;;;;;;;19.89;69.59;101981.56;5001613;28;20180;-80
2022/08/13 05:58:21;;;;;;;4.33;3.10;;;;;;;20.06;68.51;101979.81;4984159;28;20239;-80
2022/08/13 06:03:36;;;;;;;5.87;2.97;;;;;;;20.36;65.19;101966.81;5000662;28;20195;-81
2022/08/13 06:06:09;;;;;;;4.20;2.70;;;;;;;20.54;64.79;101964.16;4982978;28;20318;-80
2022/08/13 06:08:38;;;;;;;8.30;3.10;;;;;;;20.70;63.03;101965.81;4978372;28;20206;-79
2022/08/13 06:11:10;;;;;;;4.63;2.63;;;;;;;20.84;65.11;101962.28;4995275;28;20202;-82
2022/08/13 06:13:40;;;;;;;5.87;2.57;;;;;;;21.04;64.11;101970.91;4972312;28;20171;-78
2022/08/13 06:16:07;;;;;;;3.40;3.10;;;;;;;21.18;63.22;101963.88;4993475;28;20533;-79
2022/08/13 06:18:35;;;;;;;7.40;2.93;;;;;;;21.37;62.56;101962.03;4995992;28;20254;-80
2022/08/13 06:21:04;;;;;;;5.87;2.80;;;;;;;21.56;62.29;101959.25;5000390;28;20199;-79
2022/08/13 06:23:31;;;;;;;5.57;3.33;;;;;;;21.61;60.86;101962.69;4984298;28;20297;-80
2022/08/13 06:25:58;;;;;;;5.43;3.13;;;;;;;21.76;59.36;101961.75;5000292;28;20284;-78
2022/08/13 06:28:28;;;;;;;4.93;2.90;;;;;;;21.95;58.76;101969.41;5000085;28;20208;-78
2022/08/13 06:30:55;;;;;;;6.77;3.10;;;;;;;22.10;58.54;101963.16;4983453;28;20715;-80
2022/08/13 06:33:26;;;;;;;4.07;2.87;;;;;;;22.27;59.38;101964.75;4998437;28;20183;-79
2022/08/13 06:35:57;;;;;;;4.43;2.67;;;;;;;22.49;57.98;101962.78;4980459;28;20630;-79
2022/08/13 06:38:30;;;;;;;3.80;2.87;;;;;;;22.60;57.07;101966.13;5014665;28;20227;-78
2022/08/13 06:40:59;;;;;;;5.00;3.00;;;;;;;22.74;56.51;101964.22;4996994;28;20192;-78
2022/08/13 06:43:29;;;;;;;4.77;2.87;;;;;;;22.97;56.07;101961.31;4981647;28;20187;-79
2022/08/13 06:45:59;;;;;;;4.33;2.90;;;;;;;23.17;55.17;101952.31;4997437;28;20207;-80
2022/08/13 06:48:26;;;;;;;4.10;2.77;;;;;;;23.30;54.40;101960.88;4978650;28;20219;-80
2022/08/13 06:50:52;;;;;;;5.17;3.10;;;;;;;23.50;55.70;101958.81;4978478;28;20201;-80
2022/08/13 06:53:18;;;;;;;5.60;2.67;;;;;;;23.62;53.79;101959.47;5009311;28;20191;-80
2022/08/13 06:55:47;;;;;;;6.27;2.83;;;;;;;23.76;53.26;101960.13;4981565;28;20183;-80
2022/08/13 06:58:14;;;;;;;4.03;2.60;;;;;;;23.99;53.72;101967.63;4982136;28;20211;-77
2022/08/13 07:00:41;;;;;;;3.27;2.97;;;;;;;24.07;52.70;101966.59;4981739;28;20203;-81
2022/08/13 07:03:09;;;;;;;4.40;2.93;;;;;;;24.31;52.21;101967.91;4982204;28;20195;-78
2022/08/13 07:05:38;;;;;;;3.27;2.77;;;;;;;24.46;51.66;101970.22;4983274;28;20212;-81
2022/08/13 07:08:07;;;;;;;6.20;3.27;;;;;;;24.58;50.35;101962.13;5000111;28;20211;-80
2022/08/13 07:10:40;;;;;;;6.00;2.93;;;;;;;24.60;49.73;101963.00;4982927;28;20198;-80
2022/08/13 07:13:06;;;;;;;4.97;2.93;;;;;;;24.93;50.52;101971.03;4983034;28;20187;-79
2022/08/13 07:15:32;;;;;;;5.17;2.63;;;;;;;24.91;47.58;101967.56;4998398;28;20188;-80
2022/08/13 07:18:03;;;;;;;6.90;2.97;;;;;;;25.16;49.27;101968.75;4994500;28;20218;-77
2022/08/13 07:20:29;;;;;;;6.53;2.83;;;;;;;25.37;48.48;101965.66;4998138;28;20196;-79
2022/08/13 07:22:55;;;;;;;6.75;2.58;;;;;;;25.54;48.89;101974.00;4981957;28;20256;-79
2022/08/13 07:25:30;;;;;;;5.70;2.80;;;;;;;25.64;47.90;101972.03;4984871;28;20235;-80
2022/08/13 07:27:59;;;;;;;10.40;3.20;;;;;;;25.85;46.96;101974.13;4999540;28;20301;-79
2022/08/13 07:30:25;;;;;;;4.28;2.88;;;;;;;26.01;47.01;101965.00;5000542;28;20191;-80
2022/08/13 07:32:52;;;;;;;8.13;3.20;;;;;;;26.02;46.59;101962.31;4983187;28;20195;-79
2022/08/13 07:35:18;;;;;;;8.60;3.20;;;;;;;26.22;47.01;101962.66;5001099;28;20666;-79
2022/08/13 07:37:46;;;;;;;4.47;2.75;;;;;;;26.47;46.67;101961.06;4999955;28;20211;-81
2022/08/13 07:40:12;;;;;;;3.95;2.58;;;;;;;26.72;47.20;101962.13;5000956;28;20188;-81
2022/08/13 07:42:41;;;;;;;3.53;2.38;;;;;;;26.56;46.08;101963.47;5000970;28;20191;-78
2022/08/13 07:45:08;;;;;;;7.93;2.97;;;;;;;26.81;46.50;101964.50;5000678;28;20270;-79
2022/08/13 07:47:37;;;;;;;3.80;2.60;;;;;;;27.10;45.63;101964.47;5000595;28;20203;-79
2022/08/13 07:50:10;;;;;;;5.60;2.90;;;;;;;26.85;45.64;101970.53;5001686;28;20176;-79
2022/08/13 07:52:37;;;;;;;3.65;2.83;;;;;;;26.86;46.25;101961.72;4983798;28;20183;-78
2022/08/13 07:55:03;;;;;;;5.68;2.80;;;;;;;27.28;46.06;101970.97;4983074;28;20622;-80
2022/08/13 07:57:31;;;;;;;6.53;3.20;;;;;;;27.63;44.42;101962.81;4996173;28;20294;-80
2022/08/13 07:59:57;;;;;;;6.03;3.00;;;;;;;27.64;44.28;101973.31;4993113;28;20183;-78
2022/08/13 08:02:26;;;;;;;5.82;2.55;;;;;;;27.50;44.66;101974.66;4995331;28;20211;-78
2022/08/13 08:04:56;;;;;;;2.95;2.60;;;;;;;27.55;44.11;101978.88;4988956;28;20207;-78
2022/08/13 08:07:26;;;;;;;5.53;3.08;;;;;;;27.80;43.93;101973.66;5010842;28;20216;-79
2022/08/13 08:09:52;;;;;;;4.55;2.78;;;;;;;27.99;43.59;101969.50;5017065;28;20191;-79
2022/08/13 08:12:32;;;;;;;4.97;2.72;;;;;;;28.41;43.94;101973.31;5017169;28;20198;-79
2022/08/13 08:15:00;;;;;;;4.13;2.70;;;;;;;28.47;42.16;101970.44;5001517;28;20183;-80
2022/08/13 08:17:27;;;;;;;4.05;2.55;;;;;;;28.69;42.03;101974.03;5018860;28;20272;-79
2022/08/13 08:19:53;;;;;;;4.38;2.70;;;;;;;29.07;42.33;101974.31;5004244;28;20186;-79
2022/08/13 08:22:20;;;;;;;4.28;2.80;;;;;;;29.08;41.56;101980.44;5010343;28;20266;-79
2022/08/13 08:24:48;;;;;;;4.20;2.75;;;;;;;29.31;40.59;101965.44;4999673;28;20212;-79
2022/08/13 08:27:16;;;;;;;3.70;2.40;;;;;;;29.21;39.54;101969.38;4995779;28;20207;-78
2022/08/13 08:29:46;;;;;;;5.05;2.80;;;;;;;29.43;40.44;101969.38;4998673;28;20191;-80
2022/08/13 08:32:14;;;;;;;3.33;2.80;;;;;;;29.75;40.39;101967.13;5000349;28;20207;-80
2022/08/13 08:34:44;;;;;;;3.40;2.38;;;;;;;29.74;38.65;101968.06;4982107;28;20218;-81
2022/08/13 08:42:35;;;;;;;4.10;2.47;;;;;;;30.04;39.05;101964.13;4980365;28;20196;-81
2022/08/13 08:42:50;;;;;;;4.85;2.80;;;;;;;30.57;38.59;101967.06;4997020;28;20195;-79
2022/08/13 08:45:18;;;;;;;4.38;2.83;;;;;;;30.63;38.45;101963.28;5004038;28;20254;-80
2022/08/13 08:47:45;;;;;;;5.13;2.88;;;;;;;31.01;37.92;101965.91;4998448;28;20236;-80
2022/08/13 08:50:11;;;;;;;5.05;2.60;;;;;;;31.02;35.71;101964.13;5000871;28;20187;-79
2022/08/13 08:55:24;;;;;;;3.17;2.63;;;;;;;31.45;36.25;101961.16;5001857;28;20581;-79
2022/08/13 08:57:52;;;;;;;3.95;2.20;;;;;;;31.61;35.59;101962.09;5002078;28;20211;-80
2022/08/13 09:00:20;;;;;;;5.15;2.58;;;;;;;31.70;34.46;101956.34;5002288;28;20192;-80
2022/08/13 09:02:50;;;;;;;6.25;2.50;;;;;;;31.78;34.58;101954.22;4988254;28;20186;-78
2022/08/13 09:05:20;;;;;;;3.92;2.50;;;;;;;31.77;34.17;101960.47;4985222;28;20216;-80
2022/08/13 09:07:47;;;;;;;4.43;2.50;;;;;;;31.82;34.28;101951.34;5000092;28;20239;-79
2022/08/13 09:10:16;;;;;;;3.00;2.22;;;;;;;31.73;34.76;101957.06;5000084;28;20529;-79
2022/08/13 09:12:44;;;;;;;3.20;2.38;;;;;;;31.97;33.90;101952.34;4998603;28;20180;-80
2022/08/13 09:15:11;;;;;;;4.25;2.33;;;;;;;32.00;34.26;101950.38;5000538;28;20191;-79
2022/08/13 09:17:39;;;;;;;4.03;2.40;;;;;;;32.58;33.79;101949.06;4999770;28;20219;-80
2022/08/13 09:20:25;;;;;;;3.00;2.03;;;;;;;32.37;32.51;101947.53;4999840;28;20195;-79
2022/08/13 09:23:07;;;;;;;3.28;2.30;;;;;;;32.89;32.92;101948.25;4983215;28;20235;-78
2022/08/13 09:25:46;;;;;;;5.20;2.53;;;;;;;32.92;32.10;101946.28;4999211;28;20214;-81
2022/08/13 09:28:11;;;;;;;3.28;2.53;;;;;;;33.09;31.75;101945.34;4983241;28;20203;-79
2022/08/13 09:30:39;;;;;;;4.18;2.05;;;;;;;33.34;31.86;101941.22;4998858;28;20254;-80
2022/08/13 09:33:06;;;;;;;4.63;2.53;;;;;;;33.51;31.06;101941.13;4999118;28;20186;-79
2022/08/13 09:35:33;;;;;;;2.83;2.50;;;;;;;33.65;30.58;101943.81;5000805;28;20180;-80
2022/08/13 09:38:02;;;;;;;8.52;2.28;;;;;;;33.30;30.37;101944.16;4999262;28;20294;-80
2022/08/13 09:40:32;;;;;;;5.47;2.38;;;;;;;33.51;30.90;101937.63;4999541;28;20188;-80
2022/08/13 09:43:31;;;;;;;2.70;2.28;;;;;;;33.94;30.37;101936.81;4982997;28;20219;-79
2022/08/13 09:45:57;;;;;;;4.10;2.20;;;;;;;33.73;30.47;101932.72;4994650;28;20224;-80
2022/08/13 09:48:24;;;;;;;2.50;2.30;;;;;;;34.06;30.35;101934.25;4996303;28;20235;-78
2022/08/13 09:50:52;;;;;;;3.45;2.42;;;;;;;33.89;30.20;101926.44;4995319;28;20664;-79
2022/08/13 09:53:18;;;;;;;7.30;2.88;;;;;;;33.60;30.48;101929.94;4995668;28;20263;-79
2022/08/13 09:55:45;;;;;;;4.40;2.35;;;;;;;34.04;30.36;101920.22;4995029;28;20739;-81
2022/08/13 09:58:11;;;;;;;3.60;2.38;;;;;;;34.43;30.77;101916.91;4978975;28;20200;-81
2022/08/13 10:00:37;;;;;;;4.25;2.35;;;;;;;34.40;29.22;101912.63;4974975;28;20191;-80
2022/08/13 10:03:06;;;;;;;2.80;2.50;;;;;;;34.74;29.94;101909.56;4995287;28;20211;-81
2022/08/13 10:05:34;;;;;;;3.28;2.83;;;;;;;34.59;30.29;101905.22;4974024;28;20210;-80
2022/08/13 10:08:05;;;;;;;4.70;2.53;;;;;;;34.20;29.08;101910.34;4975963;28;20216;-80
2022/08/13 10:10:31;;;;;;;3.83;2.47;;;;;;;34.84;29.84;101902.72;4975693;28;20195;-80
2022/08/13 10:12:59;;;;;;;3.88;2.28;;;;;;;34.92;28.74;101899.56;4992900;28;20247;-80
2022/08/13 10:15:24;;;;;;;3.00;2.40;;;;;;;34.81;29.37;101899.41;4992587;28;20195;-81
2022/08/13 10:17:57;;;;;;;4.10;2.40;;;;;;;35.10;28.91;101898.34;4977811;28;20299;-81
2022/08/13 10:20:29;;;;;;;5.00;2.40;;;;;;;34.59;29.07;101891.03;4976775;28;20728;-78
2022/08/13 10:22:57;;;;;;;4.43;2.60;;;;;;;34.84;29.45;101881.41;4978984;28;20192;-81
2022/08/13 10:25:25;;;;;;;4.65;2.38;;;;;;;35.49;29.70;101885.06;4977533;28;20290;-80
2022/08/13 10:27:51;;;;;;;5.05;2.60;;;;;;;35.45;28.33;101878.25;4992932;28;20211;-81
2022/08/13 10:30:18;;;;;;;5.25;2.70;;;;;;;35.20;28.63;101886.13;4977757;28;20180;-81
2022/08/13 10:32:44;;;;;;;3.72;2.95;;;;;;;35.33;27.56;101876.41;4993355;28;20184;-80
2022/08/13 10:35:09;;;;;;;3.28;2.78;;;;;;;35.10;29.18;101882.38;4978290;28;20723;-81
2022/08/13 10:37:46;;;;;;;7.82;3.03;;;;;;;35.36;27.87;101878.88;4975825;28;20208;-80
2022/08/13 10:40:16;;;;;;;3.75;2.78;;;;;;;35.68;29.03;101867.69;4976885;28;20192;-82
2022/08/13 10:42:44;;;;;;;7.07;2.78;;;;;;;35.94;28.49;101865.94;4992557;28;20189;-81
2022/08/13 10:45:13;;;;;;;3.42;3.20;;;;;;;35.75;28.08;101865.50;4978400;28;20220;-80
2022/08/13 10:47:47;;;;;;;4.50;3.80;;;;;;;35.26;28.24;101867.09;4992941;28;20244;-81
2022/08/13 10:50:14;;;;;;;5.60;3.80;;;;;;;35.22;29.13;101871.75;4976429;28;20192;-80
2022/08/13 10:52:41;;;;;;;3.53;3.22;;;;;;;34.99;29.08;101872.41;4983279;28;20198;-81
2022/08/13 10:55:11;;;;;;;5.45;3.67;;;;;;;35.13;28.97;101871.53;5005192;28;20203;-79
2022/08/13 10:57:37;;;;;;;3.90;3.60;;;;;;;35.26;29.88;101857.28;4995125;28;20214;-80
2022/08/13 11:00:11;;;;;;;5.57;3.72;;;;;;;35.53;28.72;101857.22;4995137;28;20269;-79
2022/08/13 11:02:37;;;;;;;4.30;3.42;;;;;;;36.07;30.38;101856.09;4995099;28;20191;-80
2022/08/13 11:05:07;;;;;;;4.00;3.60;;;;;;;35.97;28.25;101847.88;4995395;28;20580;-81
2022/08/13 11:07:34;;;;;;;10.27;4.25;;;;;;;34.60;30.43;101861.66;4995036;28;20207;-79
2022/08/13 11:10:01;;;;;;;5.10;4.55;;;;;;;35.28;29.94;101858.06;4979049;28;20198;-79
2022/08/13 11:12:27;;;;;;;5.20;4.78;;;;;;;35.88;29.44;101853.91;4979220;28;20187;-79
2022/08/13 11:14:53;;;;;;;5.30;4.45;;;;;;;35.82;28.21;101856.13;4995567;28;20183;-81
2022/08/13 11:17:20;;;;;;;7.13;4.30;;;;;;;35.79;28.76;101845.66;4976424;28;20201;-79
2022/08/13 11:19:48;;;;;;;4.70;4.20;;;;;;;36.13;29.18;101851.19;4975401;28;20207;-81
2022/08/13 11:22:15;;;;;;;5.78;4.55;;;;;;;36.37;28.89;101848.63;4976927;28;20185;-81
2022/08/13 11:24:46;;;;;;;4.80;4.15;;;;;;;36.40;28.63;101843.91;4976168;28;20194;-79
2022/08/13 11:27:13;;;;;;;5.70;4.10;;;;;;;36.15;28.15;101846.59;4978790;28;20195;-79
2022/08/13 11:29:38;;;;;;;4.72;4.32;;;;;;;36.24;28.56;101840.63;4979093;28;20804;-80
2022/08/13 11:32:05;;;;;;;7.90;4.30;;;;;;;35.95;28.00;101835.59;4979049;28;20201;-81
2022/08/13 11:34:30;;;;;;;4.68;4.28;;;;;;;35.76;28.47;101838.72;4978817;28;20192;-79
2022/08/13 11:36:56;;;;;;;6.47;4.07;;;;;;;35.75;28.24;101837.03;4975722;28;20236;-81
2022/08/13 11:39:23;;;;;;;5.05;3.95;;;;;;;35.74;28.70;101829.13;4973935;28;20239;-82
2022/08/13 11:41:48;;;;;;;4.60;3.83;;;;;;;36.44;29.21;101826.72;4995925;28;20249;-82
2022/08/13 11:44:14;;;;;;;4.05;3.70;;;;;;;35.88;28.86;101826.34;5014420;28;20179;-82
2022/08/13 11:46:40;;;;;;;6.43;4.28;;;;;;;35.51;28.96;101838.69;5013712;28;20223;-83